Time;durP1;ratioP1;P1;durP2;ratioP2;P2;SDS_P1;SDS_P2;PMS_P1;PMS_P2;Temp;Humidity;BMP_temperature;BMP_pressure;BME280_temperature;BME280_humidity;BME280_pressure;Samples;Min_cycle;Max_cycle;Signal;HPM_P1;HPM_P2
2021/09/13 00:02:00;;;;;;;;;;;;;;;22.45;67.52;101717.19;7282128;19;153045;-52
2021/09/13 00:04:27;;;;;;;;;;;;;;;22.48;67.50;101719.44;7278572;19;154232;-51
2021/09/13 00:06:53;;;;;;;;;;;;;;;22.46;67.35;101727.34;7282814;19;151994;-52
2021/09/13 00:09:20;;;;;;;;;;;;;;;22.48;67.39;101727.03;7280876;19;153577;-52
2021/09/13 00:11:47;;;;;;;;;;;;;;;22.49;67.44;101721.09;7282746;19;153320;-51
2021/09/13 00:14:14;;;;;;;;;;;;;;;22.50;67.17;101719.94;7281508;19;152299;-51
2021/09/13 00:16:40;;;;;;;;;;;;;;;22.49;67.66;101721.09;7281552;19;151629;-50
2021/09/13 00:19:07;;;;;;;;;;;;;;;22.49;67.67;101721.09;7279263;19;153965;-51
2021/09/13 00:21:34;;;;;;;;;;;;;;;22.50;67.39;101728.41;7290138;19;152065;-50
2021/09/13 00:24:01;;;;;;;;;;;;;;;22.48;67.16;101725.06;7278764;19;153243;-51
2021/09/13 00:26:27;;;;;;;;;;;;;;;22.51;67.30;101723.59;7282078;19;152090;-52
2021/09/13 00:28:54;;;;;;;;;;;;;;;22.50;67.14;101722.75;7280822;19;151911;-51
2021/09/13 00:31:21;;;;;;;;;;;;;;;22.50;67.05;101722.75;7280995;19;153987;-51
2021/09/13 00:33:48;;;;;;;;;;;;;;;22.50;67.20;101724.75;7280026;19;152254;-52
2021/09/13 00:36:14;;;;;;;;;;;;;;;22.49;67.45;101718.25;7281352;19;153492;-50
2021/09/13 00:38:41;;;;;;;;;;;;;;;22.50;67.32;101727.56;7281269;19;153372;-51
2021/09/13 00:41:08;;;;;;;;;;;;;;;22.50;67.31;101722.75;7280638;19;152260;-51
2021/09/13 00:43:34;;;;;;;;;;;;;;;22.50;67.28;101719.94;7285216;19;151883;-51
2021/09/13 00:46:01;;;;;;;;;;;;;;;22.50;67.53;101711.50;7281801;19;151819;-51
2021/09/13 00:48:28;;;;;;;;;;;;;;;22.49;67.40;101715.44;7280994;19;152697;-53
2021/09/13 00:50:54;;;;;;;;;;;;;;;22.53;67.50;101715.69;7281248;19;154065;-51
2021/09/13 00:53:22;;;;;;;;;;;;;;;22.53;67.30;101710.88;7281653;19;151784;-52
2021/09/13 00:55:53;;;;;;;;;;;;;;;22.54;67.11;101717.34;7277870;19;153702;-51
2021/09/13 00:58:22;;;;;;;;;;;;;;;22.54;67.47;101714.53;7280541;19;154096;-52
2021/09/13 01:00:49;;;;;;;;;;;;;;;22.54;67.49;101712.56;7280493;19;151770;-52
2021/09/13 01:03:16;;;;;;;;;;;;;;;22.55;67.51;101717.06;7281123;19;152698;-52
2021/09/13 01:05:43;;;;;;;;;;;;;;;22.57;67.37;101726.06;7288171;19;154214;-51
2021/09/13 01:08:09;;;;;;;;;;;;;;;22.56;67.27;101721.56;7278215;19;153395;-51
2021/09/13 01:10:36;;;;;;;;;;;;;;;22.57;67.12;101723.25;7278398;19;152711;-52
2021/09/13 01:13:03;;;;;;;;;;;;;;;22.56;67.11;101727.19;7280544;19;151936;-51
2021/09/13 01:15:30;;;;;;;;;;;;;;;22.55;67.62;101722.69;7283744;19;152616;-51
2021/09/13 01:17:56;;;;;;;;;;;;;;;22.54;67.13;101725.81;7285813;19;153354;-52
2021/09/13 01:20:24;;;;;;;;;;;;;;;22.53;67.47;101716.50;7287529;19;152138;-52
2021/09/13 01:22:53;;;;;;;;;;;;;;;22.52;67.41;101712.03;7286040;19;153472;-51
2021/09/13 01:25:19;;;;;;;;;;;;;;;22.51;67.67;101716.00;7285243;19;153922;-52
2021/09/13 01:27:46;;;;;;;;;;;;;;;22.51;67.54;101710.38;7295246;19;151770;-51
2021/09/13 01:30:14;;;;;;;;;;;;;;;22.49;67.84;101709.81;7284114;19;154193;-51
2021/09/13 01:32:40;;;;;;;;;;;;;;;22.51;67.82;101698.25;7282985;19;152096;-51
2021/09/13 01:35:09;;;;;;;;;;;;;;;22.52;67.66;101702.75;7286723;19;153321;-52
2021/09/13 01:37:35;;;;;;;;;;;;;;;22.50;67.78;101700.22;7282844;19;152461;-52
2021/09/13 01:40:03;;;;;;;;;;;;;;;22.51;67.92;101696.28;7283953;19;151670;-52
2021/09/13 01:42:29;;;;;;;;;;;;;;;22.52;67.92;101697.13;7285345;19;152552;-51
2021/09/13 01:44:56;;;;;;;;;;;;;;;22.53;68.09;101696.00;7286237;19;152298;-51
2021/09/13 01:47:23;;;;;;;;;;;;;;;22.52;68.21;101692.34;7294215;19;154468;-57
2021/09/13 01:49:50;;;;;;;;;;;;;;;22.52;68.43;101691.50;7284085;19;154296;-52
2021/09/13 01:52:17;;;;;;;;;;;;;;;22.52;68.20;101700.78;7284467;19;151936;-52
2021/09/13 01:54:43;;;;;;;;;;;;;;;22.51;68.49;101693.47;7285078;19;153336;-51
2021/09/13 01:57:10;;;;;;;;;;;;;;;22.51;68.12;101704.72;7284662;19;154111;-51
2021/09/13 01:59:37;;;;;;;;;;;;;;;22.50;68.30;101700.22;7285837;19;152264;-51
2021/09/13 02:02:03;;;;;;;;;;;;;;;22.50;68.74;101705.03;7287063;19;152626;-51
2021/09/13 02:04:30;;;;;;;;;;;;;;;22.51;68.89;101696.28;7284792;19;153923;-51
2021/09/13 02:06:57;;;;;;;;;;;;;;;22.53;68.47;101693.97;7285965;19;151924;-51
2021/09/13 02:09:24;;;;;;;;;;;;;;;22.53;68.67;101687.53;7292264;19;153001;-51
2021/09/13 02:11:50;;;;;;;;;;;;;;;22.52;68.66;101680.22;7283845;19;151893;-51
2021/09/13 02:14:17;;;;;;;;;;;;;;;22.53;68.93;101676.28;7284322;19;153373;-51
2021/09/13 02:16:44;;;;;;;;;;;;;;;22.52;68.72;101681.06;7284321;19;153238;-51
2021/09/13 02:19:10;;;;;;;;;;;;;;;22.53;68.79;101671.44;7284750;19;152018;-51
2021/09/13 02:21:37;;;;;;;;;;;;;;;22.51;68.44;101673.75;7282962;19;153265;-51
2021/09/13 02:24:04;;;;;;;;;;;;;;;22.53;68.73;101676.28;7282145;19;153866;-52
2021/09/13 02:26:31;;;;;;;;;;;;;;;22.53;68.63;101673.47;7284169;19;152260;-51
2021/09/13 02:28:58;;;;;;;;;;;;;;;22.53;68.55;101679.09;7282856;19;153328;-51
2021/09/13 02:31:26;;;;;;;;;;;;;;;22.51;68.43;101661.66;7292372;19;153820;-52
2021/09/13 02:33:53;;;;;;;;;;;;;;;22.53;68.82;101662.19;7284789;19;152803;-54
2021/09/13 02:36:20;;;;;;;;;;;;;;;22.52;68.88;101664.16;7282182;19;153622;-51
2021/09/13 02:38:47;;;;;;;;;;;;;;;22.54;68.83;101661.03;7284376;19;152148;-51
2021/09/13 02:41:14;;;;;;;;;;;;;;;22.56;68.86;101661.56;7285531;19;151700;-51
2021/09/13 02:43:40;;;;;;;;;;;;;;;22.53;68.54;101662.19;7281349;19;154395;-51
2021/09/13 02:46:07;;;;;;;;;;;;;;;22.51;68.65;101658.81;7285847;19;154291;-51
2021/09/13 02:48:34;;;;;;;;;;;;;;;22.50;68.52;101658.00;7283544;19;153721;-50
2021/09/13 02:51:00;;;;;;;;;;;;;;;22.51;68.66;101658.81;7281629;19;152224;-51
2021/09/13 02:53:27;;;;;;;;;;;;;;;22.51;68.50;101653.19;7291540;19;152341;-51
2021/09/13 02:55:54;;;;;;;;;;;;;;;22.49;68.92;101647.00;7281075;19;154096;-50
2021/09/13 02:58:21;;;;;;;;;;;;;;;22.49;68.39;101647.84;7285686;19;152631;-51
2021/09/13 03:00:47;;;;;;;;;;;;;;;22.48;68.44;101640.56;7284675;19;153944;-51
2021/09/13 03:03:14;;;;;;;;;;;;;;;22.52;68.60;101641.63;7282925;19;153097;-51
2021/09/13 03:05:42;;;;;;;;;;;;;;;22.50;68.55;101635.47;7285052;19;151708;-51
2021/09/13 03:08:08;;;;;;;;;;;;;;;22.50;68.73;101632.63;7283853;19;153323;-51
2021/09/13 03:10:35;;;;;;;;;;;;;;;22.51;68.48;101634.31;7284076;19;153308;-51
2021/09/13 03:13:02;;;;;;;;;;;;;;;22.49;68.70;101638.56;7283133;19;152376;-52
2021/09/13 03:15:29;;;;;;;;;;;;;;;22.52;68.43;101652.06;7289963;19;153347;-52
2021/09/13 03:17:55;;;;;;;;;;;;;;;22.50;68.62;101643.91;7277556;19;152343;-50
2021/09/13 03:20:22;;;;;;;;;;;;;;;22.50;68.25;101645.88;7285675;19;152262;-51
2021/09/13 03:22:49;;;;;;;;;;;;;;;22.51;68.19;101647.56;7281771;19;155939;-50
2021/09/13 03:25:16;;;;;;;;;;;;;;;22.48;68.09;101649.03;7283262;19;152490;-51
2021/09/13 03:27:42;;;;;;;;;;;;;;;22.52;68.06;101652.06;7279984;19;153662;-51
2021/09/13 03:30:10;;;;;;;;;;;;;;;22.51;68.23;101654.03;7281797;19;154129;-52
2021/09/13 03:32:36;;;;;;;;;;;;;;;22.52;68.50;101654.88;7281636;19;151904;-50
2021/09/13 03:35:03;;;;;;;;;;;;;;;22.50;68.14;101659.97;7280602;19;153543;-51
2021/09/13 03:37:30;;;;;;;;;;;;;;;22.50;68.22;101669.25;7289273;19;152498;-51
2021/09/13 03:39:57;;;;;;;;;;;;;;;22.50;68.20;101669.25;7283309;19;153088;-52
2021/09/13 03:42:23;;;;;;;;;;;;;;;22.49;68.27;101670.38;7282389;19;153975;-52
2021/09/13 03:44:50;;;;;;;;;;;;;;;22.51;68.94;101668.13;7280116;19;151561;-51
2021/09/13 03:47:17;;;;;;;;;;;;;;;22.51;68.20;101662.47;7283151;19;152614;-52
2021/09/13 03:49:43;;;;;;;;;;;;;;;22.50;68.38;101665.59;7283473;19;153496;-51
2021/09/13 03:52:10;;;;;;;;;;;;;;;22.50;68.16;101672.06;7283874;19;152708;-52
2021/09/13 03:54:37;;;;;;;;;;;;;;;22.49;68.33;101663.91;7278527;19;153265;-51
2021/09/13 03:57:04;;;;;;;;;;;;;;;22.47;68.25;101666.22;7285738;19;153940;-51
2021/09/13 03:59:31;;;;;;;;;;;;;;;22.48;68.48;101670.72;7280228;19;153377;-51
2021/09/13 04:01:59;;;;;;;;;;;;;;;22.49;68.48;101676.03;7282813;19;153733;-51
2021/09/13 04:04:28;;;;;;;;;;;;;;;22.48;67.88;101674.38;7281913;19;151564;-52
2021/09/13 04:07:17;;;;;;;;;;;;;;;22.47;68.24;101671.84;7283677;19;152760;-51
2021/09/13 04:10:12;;;;;;;;;;;;;;;22.47;68.29;101669.03;7281583;19;153402;-51
2021/09/13 04:12:38;;;;;;;;;;;;;;;22.47;68.15;101666.22;7281175;19;152440;-51
2021/09/13 04:15:05;;;;;;;;;;;;;;;22.47;67.95;101655.78;7282707;19;153465;-51
2021/09/13 04:17:32;;;;;;;;;;;;;;;22.46;68.21;101661.72;7281802;19;154029;-51
2021/09/13 04:19:59;;;;;;;;;;;;;;;22.47;68.26;101661.41;7288322;19;151558;-51
2021/09/13 04:22:26;;;;;;;;;;;;;;;22.47;68.17;101663.41;7280934;19;153288;-51
2021/09/13 04:24:52;;;;;;;;;;;;;;;22.44;67.86;101659.19;7283318;19;152236;-51
2021/09/13 04:27:19;;;;;;;;;;;;;;;22.45;67.99;101658.06;7281731;19;152645;-52
2021/09/13 04:29:46;;;;;;;;;;;;;;;22.45;68.24;101666.50;7279574;19;154275;-52
2021/09/13 04:32:12;;;;;;;;;;;;;;;22.46;67.97;101667.34;7278186;19;152529;-52
2021/09/13 04:34:39;;;;;;;;;;;;;;;22.45;67.99;101662.84;7282536;19;154255;-52
2021/09/13 04:37:06;;;;;;;;;;;;;;;22.45;67.79;101668.47;7278121;19;153933;-51
2021/09/13 04:39:33;;;;;;;;;;;;;;;22.45;67.91;101662.84;7280717;19;155353;-53
2021/09/13 04:42:00;;;;;;;;;;;;;;;22.43;68.29;101665.16;7288095;19;153672;-51
2021/09/13 04:44:27;;;;;;;;;;;;;;;22.43;68.24;101666.00;7281701;19;151941;-50
2021/09/13 04:46:54;;;;;;;;;;;;;;;22.43;67.79;101665.16;7280519;19;153712;-51
2021/09/13 04:49:24;;;;;;;;;;;;;;;22.41;68.25;101667.41;7281709;19;153112;-51
2021/09/13 04:51:51;;;;;;;;;;;;;;;22.42;68.22;101667.13;7286655;19;151632;-51
2021/09/13 04:54:17;;;;;;;;;;;;;;;22.42;68.50;101660.66;7286818;19;153342;-52
2021/09/13 04:56:45;;;;;;;;;;;;;;;22.41;68.54;101657.00;7285669;19;153380;-50
2021/09/13 04:59:11;;;;;;;;;;;;;;;22.40;68.45;101662.91;7287945;19;151928;-51
2021/09/13 05:01:38;;;;;;;;;;;;;;;22.40;68.52;101655.31;7286427;19;153346;-51
2021/09/13 05:04:09;;;;;;;;;;;;;;;22.39;68.51;101656.47;7293388;19;153362;-52
2021/09/13 05:06:37;;;;;;;;;;;;;;;22.38;69.01;101651.97;7287364;19;152962;-52
2021/09/13 05:09:04;;;;;;;;;;;;;;;22.39;69.03;101652.81;7286342;19;154063;-51
2021/09/13 05:11:31;;;;;;;;;;;;;;;22.38;69.33;101654.81;7287497;19;153771;-52
2021/09/13 05:13:58;;;;;;;;;;;;;;;22.38;69.00;101640.72;7286086;19;152101;-51
2021/09/13 05:16:25;;;;;;;;;;;;;;;22.38;68.97;101646.34;7282311;19;154121;-52
2021/09/13 05:18:51;;;;;;;;;;;;;;;22.40;69.18;101641.25;7285708;19;152276;-50
2021/09/13 05:21:18;;;;;;;;;;;;;;;22.40;69.13;101643.22;7287363;19;152559;-52
2021/09/13 05:23:45;;;;;;;;;;;;;;;22.42;69.63;101627.69;7285917;19;153268;-50
2021/09/13 05:26:11;;;;;;;;;;;;;;;22.40;69.29;101632.78;7294014;19;152440;-51
2021/09/13 05:28:38;;;;;;;;;;;;;;;22.41;69.52;101630.81;7284609;19;154083;-51
2021/09/13 05:31:05;;;;;;;;;;;;;;;22.40;69.18;101632.78;7286520;19;151927;-52
2021/09/13 05:33:32;;;;;;;;;;;;;;;22.40;69.35;101632.78;7286971;19;152808;-51
2021/09/13 05:35:58;;;;;;;;;;;;;;;22.38;69.47;101635.09;7284563;19;153377;-51
2021/09/13 05:38:26;;;;;;;;;;;;;;;22.39;69.59;101636.78;7286142;19;152007;-52
2021/09/13 05:40:52;;;;;;;;;;;;;;;22.42;69.31;101635.31;7287092;19;152647;-52
2021/09/13 05:43:19;;;;;;;;;;;;;;;22.39;69.71;101633.97;7285427;19;154360;-51
2021/09/13 05:45:46;;;;;;;;;;;;;;;22.39;69.47;101635.94;7293974;19;151596;-51
2021/09/13 05:48:13;;;;;;;;;;;;;;;22.36;69.49;101631.72;7284716;19;154511;-52
2021/09/13 05:50:42;;;;;;;;;;;;;;;22.40;69.50;101629.13;7287058;19;151931;-52
2021/09/13 05:53:08;;;;;;;;;;;;;;;22.37;69.37;101635.38;7285997;19;153489;-52
2021/09/13 05:55:35;;;;;;;;;;;;;;;22.36;69.13;101643.00;7281555;19;152214;-52
2021/09/13 05:58:02;;;;;;;;;;;;;;;22.36;69.20;101640.16;7287207;19;152095;-52
2021/09/13 06:00:28;;;;;;;;;;;;;;;22.36;69.42;101653.41;7285382;19;153046;-50
2021/09/13 06:03:00;;;;;;;;;;;;;;;22.35;69.59;101644.13;7285635;19;154115;-51
2021/09/13 06:05:28;;;;;;;;;;;;;;;22.34;69.53;101648.09;7285762;19;152004;-52
2021/09/13 06:07:54;;;;;;;;;;;;;;;22.33;69.17;101646.41;7291950;19;153752;-52
2021/09/13 06:10:21;;;;;;;;;;;;;;;22.34;69.52;101653.72;7286055;19;151948;-51
2021/09/13 06:12:48;;;;;;;;;;;;;;;22.34;69.13;101662.19;7284891;19;153189;-51
2021/09/13 06:15:15;;;;;;;;;;;;;;;22.36;69.46;101664.66;7282732;19;153221;-52
2021/09/13 06:17:42;;;;;;;;;;;;;;;22.37;69.09;101663.53;7284884;19;151996;-52
2021/09/13 06:20:09;;;;;;;;;;;;;;;22.38;69.05;101663.25;7285985;19;153105;-51
2021/09/13 06:22:36;;;;;;;;;;;;;;;22.36;69.07;101670.31;7283844;19;152620;-51
2021/09/13 06:25:03;;;;;;;;;;;;;;;22.36;69.51;101664.66;7285925;19;151913;-52
2021/09/13 06:27:29;;;;;;;;;;;;;;;22.36;69.27;101665.50;7284977;19;152744;-51
2021/09/13 06:29:56;;;;;;;;;;;;;;;22.35;69.36;101663.03;7290866;19;153444;-52
2021/09/13 06:32:23;;;;;;;;;;;;;;;22.39;69.50;101669.72;7285236;19;153393;-52
2021/09/13 06:34:49;;;;;;;;;;;;;;;22.41;69.07;101678.69;7282237;19;154647;-52
2021/09/13 06:37:19;;;;;;;;;;;;;;;22.42;69.50;101672.75;7283806;19;151659;-52
2021/09/13 06:39:47;;;;;;;;;;;;;;;22.42;69.60;101678.38;7284901;19;153100;-51
2021/09/13 06:42:13;;;;;;;;;;;;;;;22.38;67.52;101677.31;7282910;19;153350;-51
2021/09/13 06:44:44;;;;;;;;;;;;;;;22.28;65.79;101676.63;7283274;19;152533;-50
2021/09/13 06:47:22;;;;;;;;;;;;;;;22.25;64.59;101683.72;7283653;19;152728;-51
2021/09/13 06:49:49;;;;;;;;;;;;;;;22.22;64.26;101684.28;7282907;19;153946;-51
2021/09/13 06:52:16;;;;;;;;;;;;;;;22.18;63.80;101674.78;7290943;19;152237;-51
2021/09/13 06:54:42;;;;;;;;;;;;;;;22.19;65.18;101684.91;7279950;19;152628;-51
2021/09/13 06:57:09;;;;;;;;;;;;;;;22.18;65.71;101677.59;7282998;19;151810;-51
2021/09/13 06:59:36;;;;;;;;;;;;;;;22.13;65.89;101678.50;7283821;19;153516;-51
2021/09/13 07:02:03;;;;;;;;;;;;;;;22.10;65.86;101687.56;7283224;19;153989;-52
2021/09/13 07:04:30;;;;;;;;;;;;;;;22.10;66.03;101681.94;7284170;19;151868;-51
2021/09/13 07:06:57;;;;;;;;;;;;;;;22.10;65.77;101683.91;7284577;19;153620;-51
2021/09/13 07:09:24;;;;;;;;;;;;;;;22.10;65.84;101686.72;7282059;19;153927;-52
2021/09/13 07:11:50;;;;;;;;;;;;;;;22.08;66.01;101689.81;7282540;19;152161;-55
2021/09/13 07:14:17;;;;;;;;;;;;;;;22.09;65.91;101679.41;7290820;19;154139;-51
2021/09/13 07:16:45;;;;;;;;;;;;;;;22.07;65.67;101682.53;7283655;19;151832;-51
2021/09/13 07:19:11;;;;;;;;;;;;;;;22.08;65.76;101683.34;7281720;19;153896;-52
2021/09/13 07:21:38;;;;;;;;;;;;;;;22.05;66.18;101679.19;7280063;19;153335;-51
2021/09/13 07:24:05;;;;;;;;;;;;;;;22.08;65.79;101678.56;7285387;19;151970;-52
2021/09/13 07:26:33;;;;;;;;;;;;;;;22.15;66.23;101681.03;7283662;19;153126;-52
2021/09/13 07:29:03;;;;;;;;;;;;;;;22.18;66.40;101680.41;7281817;19;154155;-52
2021/09/13 07:31:29;;;;;;;;;;;;;;;22.16;65.85;101677.91;7282231;19;151734;-51
2021/09/13 07:33:56;;;;;;;;;;;;;;;22.12;66.14;101678.81;7282261;19;153128;-52
2021/09/13 07:36:23;;;;;;;;;;;;;;;22.12;65.71;101681.63;7287588;19;152773;-52
2021/09/13 07:38:49;;;;;;;;;;;;;;;22.11;65.79;101680.78;7281938;19;152218;-51
2021/09/13 07:41:21;;;;;;;;;;;;;;;22.10;65.49;101676.28;7280003;19;153794;-52
2021/09/13 07:43:48;;;;;;;;;;;;;;;22.10;65.84;101678.28;7281666;19;151623;-51
2021/09/13 07:46:15;;;;;;;;;;;;;;;22.08;65.57;101674.91;7283538;19;152640;-51
2021/09/13 07:48:42;;;;;;;;;;;;;;;22.09;63.80;101676.59;7281654;19;153727;-51
2021/09/13 07:51:08;;;;;;;;;;;;;;;22.03;62.86;101678.63;7282908;19;151926;-51
2021/09/13 07:53:35;;;;;;;;;;;;;;;21.98;62.56;101681.53;7284179;19;152083;-52
2021/09/13 07:56:02;;;;;;;;;;;;;;;21.97;63.15;101674.22;7284022;19;153636;-51
2021/09/13 07:58:28;;;;;;;;;;;;;;;21.95;63.55;101670.84;7277814;19;152600;-51
2021/09/13 08:00:55;;;;;;;;;;;;;;;21.96;64.00;101666.06;7282322;19;152641;-51
2021/09/13 08:03:22;;;;;;;;;;;;;;;21.97;64.25;101676.19;7283135;19;151863;-51
2021/09/13 08:05:49;;;;;;;;;;;;;;;21.96;64.58;101675.34;7277628;19;153563;-52
2021/09/13 08:08:16;;;;;;;;;;;;;;;21.98;64.52;101675.06;7283911;19;153931;-52
2021/09/13 08:10:43;;;;;;;;;;;;;;;21.98;64.77;101677.88;7284261;19;152466;-52
2021/09/13 08:13:09;;;;;;;;;;;;;;;21.97;64.86;101676.19;7284226;19;153398;-52
2021/09/13 08:15:36;;;;;;;;;;;;;;;21.98;64.46;101669.44;7281103;19;152247;-51
2021/09/13 08:18:03;;;;;;;;;;;;;;;21.98;64.96;101673.09;7289755;19;151895;-51
2021/09/13 08:20:30;;;;;;;;;;;;;;;21.99;64.74;101662.63;7282413;19;154185;-52
2021/09/13 08:22:57;;;;;;;;;;;;;;;21.97;64.62;101665.78;7285139;19;151746;-51
2021/09/13 08:25:24;;;;;;;;;;;;;;;21.98;64.79;101667.47;7280757;19;152521;-51
2021/09/13 08:27:51;;;;;;;;;;;;;;;21.99;65.03;101674.75;7282150;19;153206;-52
2021/09/13 08:30:19;;;;;;;;;;;;;;;22.00;64.54;101675.56;7282029;19;151888;-52
2021/09/13 08:32:45;;;;;;;;;;;;;;;21.99;65.14;101676.72;7282453;19;152180;-51
2021/09/13 08:35:17;;;;;;;;;;;;;;;22.00;64.95;101675.56;7282531;19;154109;-51
2021/09/13 08:37:43;;;;;;;;;;;;;;;21.98;64.85;101675.91;7282642;19;151992;-51
2021/09/13 08:40:10;;;;;;;;;;;;;;;21.99;64.92;101677.56;7290373;19;152746;-52
2021/09/13 08:42:47;;;;;;;;;;;;;;;22.00;64.73;101672.75;7283150;19;152438;-52
2021/09/13 08:45:16;;;;;;;;;;;;;;;22.01;65.04;101677.25;7281963;19;152902;-51
2021/09/13 08:48:06;;;;;;;;;;;;;;;22.00;65.09;101676.41;7281846;19;153201;-52
2021/09/13 08:53:01;;;;;;;;;;;;;;;22.00;64.76;101684.88;7282967;19;152513;-51
2021/09/13 08:55:28;;;;;;;;;;;;;;;22.00;65.19;101682.06;7281405;19;153820;-51
2021/09/13 08:57:58;;;;;;;;;;;;;;;22.02;64.74;101676.13;7280018;19;151992;-51
2021/09/13 09:00:26;;;;;;;;;;;;;;;22.03;64.85;101686.25;7284127;19;152910;-52
2021/09/13 09:02:55;;;;;;;;;;;;;;;22.04;64.71;101683.13;7289695;19;153577;-51
2021/09/13 09:05:23;;;;;;;;;;;;;;;22.02;65.19;101685.41;7283557;19;152724;-52
2021/09/13 09:07:54;;;;;;;;;;;;;;;22.03;64.70;101675.00;7280622;19;152592;-52
2021/09/13 09:10:23;;;;;;;;;;;;;;;22.03;64.79;101687.06;7282342;19;151931;-51
2021/09/13 09:12:56;;;;;;;;;;;;;;;22.04;64.97;101685.09;7281944;19;151989;-52
2021/09/13 09:15:23;;;;;;;;;;;;;;;22.04;64.78;101691.56;7281771;19;153998;-52
2021/09/13 09:17:55;;;;;;;;;;;;;;;22.05;65.06;101698.03;7279869;19;151682;-52
2021/09/13 09:20:22;;;;;;;;;;;;;;;22.03;65.10;101695.50;7280815;19;153052;-52
2021/09/13 09:23:06;;;;;;;;;;;;;;;22.03;64.75;101700.31;7281066;19;153997;-51
2021/09/13 09:25:36;;;;;;;;;;;;;;;22.03;65.16;101698.31;7290865;19;151699;-51
2021/09/13 09:28:06;;;;;;;;;;;;;;;22.04;65.00;101710.41;7281032;19;153323;-60
2021/09/13 09:30:36;;;;;;;;;;;;;;;22.05;64.84;101701.69;7282577;19;152350;-52
2021/09/13 09:33:06;;;;;;;;;;;;;;;22.03;65.10;101706.75;7281860;19;152846;-52
2021/09/13 09:35:54;;;;;;;;;;;;;;;22.04;64.93;101713.25;7282836;19;152783;-51
2021/09/13 09:38:33;;;;;;;;;;;;;;;22.02;64.74;101705.13;7286281;19;152089;-53
2021/09/13 09:41:02;;;;;;;;;;;;;;;22.02;64.89;101702.31;7289168;19;152132;-60
2021/09/13 09:43:31;;;;;;;;;;;;;;;22.02;65.01;101698.66;7285319;19;155823;-52
2021/09/13 09:45:58;;;;;;;;;;;;;;;22.02;64.61;101693.84;7289210;19;151937;-51
2021/09/13 09:48:32;;;;;;;;;;;;;;;22.03;64.90;101691.88;7294668;19;153375;-53
2021/09/13 09:50:59;;;;;;;;;;;;;;;22.02;64.71;101684.56;7289864;19;151812;-57
2021/09/13 09:53:30;;;;;;;;;;;;;;;22.03;65.13;101681.44;7287140;19;152623;-51
2021/09/13 09:56:13;;;;;;;;;;;;;;;22.04;64.87;101676.66;7285808;19;153874;-52
2021/09/13 09:58:59;;;;;;;;;;;;;;;22.04;65.14;101671.88;7285392;19;152547;-52
2021/09/13 10:01:29;;;;;;;;;;;;;;;22.05;64.70;101665.09;7286133;19;152166;-62
2021/09/13 10:04:10;;;;;;;;;;;;;;;22.05;65.06;101662.28;7285971;19;155322;-66
2021/09/13 10:06:45;;;;;;;;;;;;;;;22.07;64.94;101651.59;7284703;19;151866;-53
2021/09/13 10:09:13;;;;;;;;;;;;;;;22.08;65.05;101646.75;7294585;19;152612;-52
2021/09/13 10:11:40;;;;;;;;;;;;;;;22.08;64.98;101652.38;7288032;19;151864;-52
2021/09/13 10:14:10;;;;;;;;;;;;;;;22.11;64.66;101663.91;7286417;19;153146;-52
2021/09/13 10:16:43;;;;;;;;;;;;;;;22.12;64.76;101654.31;7286501;19;152949;-52
2021/09/13 10:19:17;;;;;;;;;;;;;;;22.14;64.55;101645.56;7285073;19;154021;-52
2021/09/13 10:21:44;;;;;;;;;;;;;;;22.15;64.63;101644.44;7287423;19;152687;-52
2021/09/13 10:24:13;;;;;;;;;;;;;;;22.14;64.78;101639.94;7286504;19;154050;-52
2021/09/13 10:26:47;;;;;;;;;;;;;;;22.16;64.67;101648.94;7286505;19;151978;-52
2021/09/13 10:29:15;;;;;;;;;;;;;;;22.16;64.52;101643.28;7287216;19;153501;-52
2021/09/13 10:31:41;;;;;;;;;;;;;;;22.15;64.48;101648.09;7292842;19;154066;-52
2021/09/13 10:34:18;;;;;;;;;;;;;;;22.16;64.92;101646.13;7286357;19;152137;-52
2021/09/13 10:37:03;;;;;;;;;;;;;;;22.17;64.55;101642.13;7285653;19;153958;-52
2021/09/13 10:39:52;;;;;;;;;;;;;;;22.17;64.62;101639.31;7284166;19;151934;-52
2021/09/13 10:42:29;;;;;;;;;;;;;;;22.17;64.38;101637.34;7284703;19;152784;-51
2021/09/13 10:45:05;;;;;;;;;;;;;;;22.17;64.69;101633.69;7282398;19;153999;-51
2021/09/13 10:47:32;;;;;;;;;;;;;;;22.18;64.55;101621.28;7284187;19;151823;-52
2021/09/13 10:50:19;;;;;;;;;;;;;;;22.18;64.85;101619.31;7284142;19;154215;-52
2021/09/13 10:52:49;;;;;;;;;;;;;;;22.19;64.38;101620.16;7285734;19;154498;-52
2021/09/13 10:55:17;;;;;;;;;;;;;;;22.20;64.36;101607.78;7291384;19;152058;-52
2021/09/13 10:58:03;;;;;;;;;;;;;;;22.20;64.70;101609.75;7284793;19;153311;-52
2021/09/13 11:00:39;;;;;;;;;;;;;;;22.20;64.42;101623.81;7287079;19;152294;-51
2021/09/13 11:06:02;;;;;;;;;;;;;;;22.20;64.70;101610.59;7284101;19;154156;-52
2021/09/13 11:08:30;;;;;;;;;;;;;;;22.21;64.53;101611.44;7283411;19;152723;-52
2021/09/13 11:10:57;;;;;;;;;;;;;;;22.21;64.53;101620.72;7285252;19;154024;-52
2021/09/13 11:13:24;;;;;;;;;;;;;;;22.21;64.44;101608.59;7284622;19;153299;-52
2021/09/13 11:15:51;;;;;;;;;;;;;;;22.21;64.22;101608.59;7285394;19;153314;-52
2021/09/13 11:18:37;;;;;;;;;;;;;;;22.23;64.47;101609.13;7290354;19;152103;-52
2021/09/13 11:21:14;;;;;;;;;;;;;;;22.21;64.27;101617.91;7286387;19;151871;-52
2021/09/13 11:23:42;;;;;;;;;;;;;;;22.21;64.27;101606.63;7286236;19;152680;-52
2021/09/13 11:26:09;;;;;;;;;;;;;;;22.23;64.41;101603.50;7284136;19;153197;-51
2021/09/13 11:28:54;;;;;;;;;;;;;;;22.24;64.13;101600.38;7284947;19;151825;-58
2021/09/13 11:31:44;;;;;;;;;;;;;;;22.25;64.34;101604.03;7280923;19;154134;-52
2021/09/13 11:34:14;;;;;;;;;;;;;;;22.24;64.28;101594.75;7282583;19;153738;-52
2021/09/13 11:36:59;;;;;;;;;;;;;;;22.26;64.27;101603.72;7285432;19;152123;-56
2021/09/13 11:39:30;;;;;;;;;;;;;;;22.28;64.02;101594.97;7281989;19;152021;-52
2021/09/13 11:42:05;;;;;;;;;;;;;;;22.27;64.06;101591.31;7291146;19;153032;-52
2021/09/13 11:44:38;;;;;;;;;;;;;;;22.31;64.41;101586.75;7285322;19;152007;-52
2021/09/13 11:47:09;;;;;;;;;;;;;;;22.31;64.41;101583.94;7280443;19;153134;-52
2021/09/13 11:49:37;;;;;;;;;;;;;;;22.32;63.96;101580.00;7286069;19;151867;-52
2021/09/13 11:52:05;;;;;;;;;;;;;;;22.33;64.12;101572.38;7283533;19;152112;-52
2021/09/13 11:54:52;;;;;;;;;;;;;;;22.35;63.98;101573.72;7281638;19;153325;-52
2021/09/13 11:57:40;;;;;;;;;;;;;;;22.38;64.12;101569.50;7284247;19;153030;-52
2021/09/13 12:00:09;;;;;;;;;;;;;;;22.41;64.28;101566.88;7280912;19;152565;-53
2021/09/13 12:02:37;;;;;;;;;;;;;;;22.41;64.06;101563.22;7279380;19;153318;-52
2021/09/13 12:05:07;;;;;;;;;;;;;;;22.44;64.14;101565.47;7293428;19;154185;-55
2021/09/13 12:07:35;;;;;;;;;;;;;;;22.45;63.74;101567.94;7283007;19;154347;-52
2021/09/13 12:10:03;;;;;;;;;;;;;;;22.46;63.81;101549.91;7283064;19;154379;-52
2021/09/13 12:12:30;;;;;;;;;;;;;;;22.48;63.87;101552.44;7284154;19;154934;-52
2021/09/13 12:15:04;;;;;;;;;;;;;;;22.48;64.11;101561.72;7277849;19;153594;-52
2021/09/13 12:17:38;;;;;;;;;;;;;;;22.49;63.87;101552.09;7284848;19;152097;-52
2021/09/13 12:20:13;;;;;;;;;;;;;;;22.48;63.86;101547.66;7279630;19;153291;-52
2021/09/13 12:22:40;;;;;;;;;;;;;;;22.51;63.75;101555.47;7284779;19;153182;-52
2021/09/13 12:25:11;;;;;;;;;;;;;;;22.48;64.06;101558.91;7292425;19;152473;-52
2021/09/13 12:27:48;;;;;;;;;;;;;;;22.46;64.06;101558.38;7282762;19;154443;-52
2021/09/13 12:30:21;;;;;;;;;;;;;;;22.45;64.12;101553.88;7282995;19;151528;-52
2021/09/13 12:32:48;;;;;;;;;;;;;;;22.47;63.55;101556.38;7283173;19;152195;-52
2021/09/13 12:35:15;;;;;;;;;;;;;;;22.47;63.57;101557.22;7282701;19;154393;-52
2021/09/13 12:37:42;;;;;;;;;;;;;;;22.48;63.41;101553.28;7284020;19;151779;-52
2021/09/13 12:40:16;;;;;;;;;;;;;;;22.47;63.77;101550.75;7280111;19;152970;-52
2021/09/13 12:42:56;;;;;;;;;;;;;;;22.46;63.48;101546.25;7281141;19;153636;-52